Time;durP1;ratioP1;P1;durP2;ratioP2;P2;SDS_P1;SDS_P2;PMS_P1;PMS_P2;Temp;Humidity;BMP_temperature;BMP_pressure;BME280_temperature;BME280_humidity;BME280_pressure;Samples;Min_cycle;Max_cycle;Signal;HPM_P1;HPM_P2
2023/12/15 00:00:43;;;;;;;0.20;0.20;;;;;;;5.75;100.00;63532.19;5071441;28;20210;-53
2023/12/15 00:03:08;;;;;;;0.30;0.30;;;;;;;5.74;100.00;63526.09;5056193;28;20205;-55
2023/12/15 00:05:34;;;;;;;0.53;0.50;;;;;;;5.63;100.00;63517.19;5051274;28;20260;-54
2023/12/15 00:07:59;;;;;;;0.73;0.60;;;;;;;5.67;100.00;63521.00;5051259;28;20221;-56
2023/12/15 00:10:25;;;;;;;0.40;0.40;;;;;;;5.75;100.00;63527.22;5051329;28;20268;-55
2023/12/15 00:12:50;;;;;;;0.53;0.50;;;;;;;5.73;100.00;63530.56;5050598;28;20274;-54
2023/12/15 00:15:16;;;;;;;0.73;0.57;;;;;;;5.78;100.00;63533.50;5051332;28;20174;-56
2023/12/15 00:17:42;;;;;;;0.60;0.30;;;;;;;5.81;100.00;63536.25;5033453;28;20667;-55
2023/12/15 00:20:08;;;;;;;3.17;0.63;;;;;;;5.91;100.00;63550.19;5051151;28;20181;-55
2023/12/15 00:22:33;;;;;;;0.60;0.47;;;;;;;5.84;100.00;63537.03;5051409;28;20296;-54
2023/12/15 00:24:59;;;;;;;1.13;0.30;;;;;;;5.83;100.00;63543.41;5051507;28;20648;-55
2023/12/15 00:27:24;;;;;;;0.30;0.20;;;;;;;5.85;100.00;63546.16;5051189;28;20213;-54
2023/12/15 00:29:50;;;;;;;0.40;0.40;;;;;;;5.87;100.00;63542.78;5051137;28;20189;-53
2023/12/15 00:32:15;;;;;;;2.10;0.40;;;;;;;5.91;100.00;63550.19;5051195;28;20218;-56
2023/12/15 00:34:41;;;;;;;0.30;0.30;;;;;;;5.93;100.00;63552.38;5050951;28;20181;-54
2023/12/15 00:37:06;;;;;;;0.20;0.17;;;;;;;5.96;100.00;63554.56;5051258;28;20305;-54
2023/12/15 00:39:36;;;;;;;0.23;0.23;;;;;;;5.90;100.00;63549.09;5050830;28;20191;-55
2023/12/15 00:42:02;;;;;;;0.43;0.43;;;;;;;5.89;100.00;63544.97;5050840;28;20205;-55
2023/12/15 00:44:27;;;;;;;0.60;0.30;;;;;;;5.97;100.00;63555.63;5016289;28;20186;-55
2023/12/15 00:46:53;;;;;;;0.30;0.20;;;;;;;5.92;100.00;63548.22;5033054;28;20308;-55
2023/12/15 00:49:18;;;;;;;1.10;0.40;;;;;;;5.83;100.00;63543.41;5032966;28;20197;-56
2023/12/15 00:51:44;;;;;;;0.30;0.30;;;;;;;6.02;100.00;63561.63;5050526;28;20209;-56
2023/12/15 00:54:09;;;;;;;0.60;0.60;;;;;;;5.98;100.00;63559.25;5032741;28;20266;-54
2023/12/15 00:56:35;;;;;;;0.63;0.30;;;;;;;5.99;100.00;63558.38;5050847;28;20288;-55
2023/12/15 00:59:04;;;;;;;0.20;0.20;;;;;;;6.07;100.00;63567.09;5050546;28;20247;-55
2023/12/15 01:01:30;;;;;;;0.50;0.40;;;;;;;6.07;100.00;63567.09;5032611;28;20207;-54
2023/12/15 01:03:56;;;;;;;0.50;0.50;;;;;;;5.95;100.00;63551.50;5050504;28;20185;-59
2023/12/15 01:06:21;;;;;;;2.00;0.40;;;;;;;5.93;100.00;63554.88;5050586;28;20250;-58
2023/12/15 01:08:47;;;;;;;0.50;0.40;;;;;;;5.92;100.00;63551.28;5050508;28;20197;-57
2023/12/15 01:11:12;;;;;;;0.50;0.40;;;;;;;6.01;100.00;63558.03;5050547;28;20213;-55
2023/12/15 01:13:38;;;;;;;0.77;0.40;;;;;;;6.08;100.00;63567.63;5049902;28;20213;-54
2023/12/15 01:16:05;;;;;;;0.50;0.47;;;;;;;5.98;100.00;63552.25;5050359;28;20209;-55
2023/12/15 01:18:31;;;;;;;0.37;0.30;;;;;;;6.05;100.00;63561.84;5050265;28;20725;-55
2023/12/15 01:20:57;;;;;;;0.43;0.30;;;;;;;5.96;100.00;63554.56;5049533;28;20227;-54
2023/12/15 01:23:22;;;;;;;0.30;0.30;;;;;;;6.00;100.00;63561.94;5050947;28;20397;-55
2023/12/15 01:25:48;;;;;;;1.23;0.50;;;;;;;5.92;100.00;63548.22;5053766;28;20565;-54
2023/12/15 01:28:13;;;;;;;0.53;0.40;;;;;;;5.87;100.00;63542.78;5053906;28;20217;-56
2023/12/15 01:30:39;;;;;;;0.30;0.20;;;;;;;5.93;100.00;63552.38;5053698;28;20188;-55
2023/12/15 01:33:05;;;;;;;0.20;0.20;;;;;;;5.88;100.00;63546.38;5053530;28;20273;-55
2023/12/15 01:35:30;;;;;;;0.37;0.33;;;;;;;5.91;100.00;63549.66;5053624;28;20264;-55
2023/12/15 01:37:56;;;;;;;0.40;0.30;;;;;;;5.96;100.00;63554.56;5053570;28;20602;-55
2023/12/15 01:40:21;;;;;;;0.40;0.40;;;;;;;5.92;100.00;63548.78;5035831;28;20226;-54
2023/12/15 01:42:47;;;;;;;0.30;0.30;;;;;;;5.79;100.00;63537.09;5035857;28;20267;-55
2023/12/15 01:45:13;;;;;;;0.30;0.30;;;;;;;5.92;100.00;63548.22;5053716;28;20196;-55
2023/12/15 01:47:39;;;;;;;0.30;0.30;;;;;;;5.90;100.00;63549.09;5035548;28;20243;-54
2023/12/15 01:50:07;;;;;;;0.40;0.40;;;;;;;5.82;100.00;63540.38;5053426;28;20617;-55
2023/12/15 01:52:33;;;;;;;0.30;0.30;;;;;;;5.80;100.00;63535.13;5053460;28;20222;-56
2023/12/15 01:54:59;;;;;;;0.30;0.20;;;;;;;5.80;100.00;63532.63;5053346;28;20284;-54
2023/12/15 01:57:24;;;;;;;0.77;0.67;;;;;;;5.83;100.00;63541.50;5018977;28;20712;-56
2023/12/15 01:59:50;;;;;;;0.63;0.40;;;;;;;5.77;100.00;63531.88;5053268;28;20197;-56
2023/12/15 02:02:16;;;;;;;0.30;0.30;;;;;;;5.79;100.00;63534.59;5053543;28;20210;-55
2023/12/15 02:04:42;;;;;;;0.33;0.33;;;;;;;5.70;100.00;63527.28;5053176;28;20263;-55
2023/12/15 02:07:08;;;;;;;0.33;0.30;;;;;;;5.80;100.00;63537.63;5053443;28;20247;-54
2023/12/15 02:09:34;;;;;;;0.30;0.30;;;;;;;5.69;100.00;63523.72;5053128;28;20737;-54
2023/12/15 02:11:59;;;;;;;0.40;0.40;;;;;;;5.85;100.00;63540.63;5053178;28;20225;-54
2023/12/15 02:14:25;;;;;;;0.20;0.20;;;;;;;5.82;100.00;63539.81;5053349;28;20647;-55
2023/12/15 02:16:50;;;;;;;0.40;0.40;;;;;;;5.78;100.00;63535.47;5053064;28;20278;-54
2023/12/15 02:19:16;;;;;;;0.50;0.50;;;;;;;5.81;100.00;63538.75;5053045;28;20219;-54
2023/12/15 02:21:42;;;;;;;0.50;0.50;;;;;;;5.89;100.00;63544.97;5053435;28;20224;-56
2023/12/15 02:24:07;;;;;;;0.63;0.30;;;;;;;5.89;100.00;63548.03;5053160;28;20300;-60
2023/12/15 02:26:33;;;;;;;0.63;0.63;;;;;;;5.82;100.00;63542.88;5053173;28;20189;-55
2023/12/15 02:28:58;;;;;;;0.93;0.40;;;;;;;5.80;100.00;63533.19;5052837;28;20244;-57
2023/12/15 02:31:25;;;;;;;0.50;0.50;;;;;;;5.94;100.00;63550.41;5052885;28;20303;-55
2023/12/15 02:33:53;;;;;;;0.50;0.50;;;;;;;5.95;100.00;63554.00;5052743;28;20181;-55
2023/12/15 02:36:23;;;;;;;0.83;0.80;;;;;;;5.85;100.00;63543.13;5052025;28;20213;-55
2023/12/15 02:38:49;;;;;;;1.10;0.60;;;;;;;5.86;100.00;63544.19;5052912;28;20666;-55
2023/12/15 02:41:15;;;;;;;0.80;0.80;;;;;;;5.82;100.00;63537.88;5052579;28;20186;-55
2023/12/15 02:43:41;;;;;;;0.53;0.53;;;;;;;5.85;100.00;63540.63;5052541;28;20238;-53
2023/12/15 02:46:07;;;;;;;0.87;0.87;;;;;;;5.87;100.00;63545.28;5052581;28;20206;-55
2023/12/15 02:48:33;;;;;;;1.20;1.03;;;;;;;5.82;100.00;63537.31;5052335;28;20600;-54
2023/12/15 02:50:59;;;;;;;0.80;0.80;;;;;;;5.89;100.00;63548.03;5052350;28;20209;-54
2023/12/15 02:53:25;;;;;;;0.70;0.70;;;;;;;5.94;100.00;63552.91;5052406;28;20251;-53
2023/12/15 02:55:50;;;;;;;1.17;1.07;;;;;;;5.83;100.00;63538.41;5052644;28;20213;-54
2023/12/15 02:58:17;;;;;;;1.17;1.03;;;;;;;5.92;100.00;63548.22;5034610;28;20292;-60
2023/12/15 03:00:43;;;;;;;1.27;1.17;;;;;;;5.82;100.00;63540.38;5052216;28;20189;-55
2023/12/15 03:03:08;;;;;;;1.70;1.30;;;;;;;5.88;100.00;63546.38;5052330;28;20210;-55
2023/12/15 03:05:35;;;;;;;1.60;1.40;;;;;;;5.96;100.00;63554.56;5052393;28;20181;-54
2023/12/15 03:08:01;;;;;;;3.13;1.63;;;;;;;5.96;100.00;63552.59;5052146;28;20217;-55
2023/12/15 03:10:26;;;;;;;2.17;1.83;;;;;;;5.91;100.00;63547.16;5052042;28;20181;-55
2023/12/15 03:12:52;;;;;;;2.00;1.80;;;;;;;5.89;100.00;63544.97;5052535;28;20228;-55
2023/12/15 03:15:17;;;;;;;3.80;2.13;;;;;;;5.82;100.00;63537.31;5052128;28;20189;-55
2023/12/15 03:17:43;;;;;;;2.37;2.03;;;;;;;5.72;100.00;63526.44;5052417;28;20687;-55
2023/12/15 03:20:08;;;;;;;2.13;1.90;;;;;;;5.83;100.00;63539.00;5052140;28;20189;-55
2023/12/15 03:22:34;;;;;;;3.57;2.33;;;;;;;5.84;100.00;63539.53;5052260;28;20209;-54
2023/12/15 03:24:59;;;;;;;3.63;2.57;;;;;;;5.93;100.00;63552.38;5051984;28;20200;-55
2023/12/15 03:27:25;;;;;;;3.03;2.40;;;;;;;5.85;100.00;63543.66;5051924;28;20216;-56
2023/12/15 03:29:51;;;;;;;4.27;2.97;;;;;;;5.94;100.00;63550.41;5051967;28;20189;-55
2023/12/15 03:32:16;;;;;;;3.53;3.20;;;;;;;5.90;100.00;63551.06;5034001;28;20675;-55
2023/12/15 03:34:42;;;;;;;4.70;3.50;;;;;;;5.94;100.00;63552.91;5051779;28;20185;-54
2023/12/15 03:37:08;;;;;;;4.50;3.83;;;;;;;5.92;100.00;63550.72;5052299;28;20209;-54
2023/12/15 03:39:35;;;;;;;3.63;2.73;;;;;;;5.89;100.00;63544.97;5051663;28;20576;-54
2023/12/15 03:42:06;;;;;;;4.83;3.70;;;;;;;5.80;100.00;63537.63;5051861;28;20213;-56
2023/12/15 03:44:32;;;;;;;5.17;4.10;;;;;;;5.81;100.00;63538.75;5051872;28;20250;-55
2023/12/15 03:46:57;;;;;;;5.33;3.80;;;;;;;5.72;100.00;63526.44;5062299;22;20228;-54
2023/12/15 03:49:23;;;;;;;5.03;4.10;;;;;;;5.83;100.00;63538.41;5071905;28;20193;-55
2023/12/15 03:51:48;;;;;;;8.23;4.63;;;;;;;5.83;100.00;63538.41;5067393;28;20228;-55
2023/12/15 03:54:14;;;;;;;5.47;4.13;;;;;;;5.80;100.00;63537.63;5051559;28;20716;-56
2023/12/15 03:56:39;;;;;;;6.83;4.87;;;;;;;5.87;100.00;63543.34;5051421;28;20592;-55
2023/12/15 03:59:05;;;;;;;7.53;5.33;;;;;;;5.89;100.00;63547.47;5051657;28;20613;-54
2023/12/15 04:01:31;;;;;;;6.90;4.63;;;;;;;5.91;100.00;63547.16;5051308;28;20662;-54
2023/12/15 04:03:57;;;;;;;6.90;5.10;;;;;;;5.84;100.00;63540.06;5051509;28;20194;-54
2023/12/15 04:06:23;;;;;;;6.70;5.00;;;;;;;5.94;100.00;63552.91;5051441;28;20205;-53
2023/12/15 04:08:48;;;;;;;7.43;4.97;;;;;;;5.90;100.00;63548.56;5051485;28;20655;-58
2023/12/15 04:11:17;;;;;;;7.90;5.50;;;;;;;5.93;100.00;63551.84;5033424;28;20193;-55
2023/12/15 04:13:43;;;;;;;8.53;5.47;;;;;;;5.92;100.00;63550.72;5051258;28;20205;-55
2023/12/15 04:16:08;;;;;;;7.87;5.70;;;;;;;5.86;100.00;63547.25;5051012;28;20659;-54
2023/12/15 04:18:34;;;;;;;9.33;6.27;;;;;;;5.83;100.00;63538.41;5033434;28;20254;-55
2023/12/15 04:21:02;;;;;;;7.87;5.20;;;;;;;5.86;100.00;63541.69;5033175;28;20262;-55
2023/12/15 04:23:27;;;;;;;7.43;5.60;;;;;;;5.83;100.00;63541.50;5051118;28;20232;-54
2023/12/15 04:25:53;;;;;;;9.53;6.80;;;;;;;5.78;100.00;63535.47;5051080;28;20185;-55
2023/12/15 04:28:19;;;;;;;7.60;5.50;;;;;;;5.78;100.00;63535.47;5033197;28;20217;-57
2023/12/15 04:30:44;;;;;;;8.80;6.60;;;;;;;5.85;100.00;63541.16;5050959;28;20188;-55
2023/12/15 04:33:10;;;;;;;9.00;6.53;;;;;;;5.73;100.00;63532.53;5050893;28;20279;-55
2023/12/15 04:35:36;;;;;;;7.87;6.17;;;;;;;5.76;100.00;63530.78;5051056;28;20185;-55
2023/12/15 04:38:01;;;;;;;9.33;6.73;;;;;;;5.74;100.00;63528.59;5050977;28;20259;-54
2023/12/15 04:40:26;;;;;;;9.60;6.80;;;;;;;5.79;100.00;63534.06;5050850;28;20224;-55
2023/12/15 04:42:52;;;;;;;9.90;7.47;;;;;;;5.69;100.00;63526.22;5050776;28;20245;-55
2023/12/15 04:45:17;;;;;;;9.13;6.87;;;;;;;5.77;100.00;63531.88;5032977;28;20266;-55
2023/12/15 04:47:43;;;;;;;8.47;6.63;;;;;;;5.81;100.00;63536.25;5051290;28;20243;-56
2023/12/15 04:50:08;;;;;;;8.63;6.00;;;;;;;5.80;100.00;63537.63;5051083;28;20201;-54
2023/12/15 04:52:34;;;;;;;10.20;6.50;;;;;;;5.77;100.00;63536.88;5050845;28;20299;-57
2023/12/15 04:55:00;;;;;;;9.50;7.20;;;;;;;5.80;100.00;63535.13;5050726;28;20221;-55
2023/12/15 04:57:25;;;;;;;9.20;6.97;;;;;;;5.79;100.00;63539.06;5050883;28;20654;-53
2023/12/15 04:59:50;;;;;;;7.17;5.63;;;;;;;5.84;100.00;63542.00;5053865;28;20662;-54
2023/12/15 05:02:16;;;;;;;10.40;6.93;;;;;;;5.71;100.00;63530.91;5036349;28;20262;-53
2023/12/15 05:04:41;;;;;;;8.60;6.20;;;;;;;5.88;100.00;63541.38;5054207;28;20185;-55
2023/12/15 05:07:07;;;;;;;8.60;7.00;;;;;;;5.83;100.00;63541.50;5036361;28;20206;-56
2023/12/15 05:09:32;;;;;;;10.27;6.23;;;;;;;5.80;100.00;63537.63;5054163;28;20185;-55
2023/12/15 05:11:58;;;;;;;9.00;6.03;;;;;;;5.84;100.00;63542.56;5054178;28;20225;-54
2023/12/15 05:14:23;;;;;;;11.73;7.00;;;;;;;5.76;100.00;63530.78;5054055;28;20678;-54
2023/12/15 05:16:49;;;;;;;8.90;6.60;;;;;;;5.73;100.00;63527.53;5036076;28;20209;-54
2023/12/15 05:19:14;;;;;;;7.73;6.07;;;;;;;5.71;100.00;63525.91;5053963;28;20656;-55
2023/12/15 05:21:39;;;;;;;8.47;6.23;;;;;;;5.70;100.00;63529.78;5053779;28;20759;-55
2023/12/15 05:24:05;;;;;;;8.63;6.10;;;;;;;5.73;100.00;63527.53;5036038;28;20227;-63
2023/12/15 05:26:31;;;;;;;9.13;5.97;;;;;;;5.83;100.00;63544.00;5035940;28;20269;-54
2023/12/15 05:28:57;;;;;;;7.30;5.50;;;;;;;5.85;100.00;63543.13;5054004;28;20611;-55
2023/12/15 05:31:22;;;;;;;7.90;5.60;;;;;;;5.87;100.00;63543.34;5053718;28;20190;-58
2023/12/15 05:33:47;;;;;;;9.17;5.40;;;;;;;5.84;100.00;63540.06;5053942;28;20569;-54
2023/12/15 05:36:20;;;;;;;7.50;5.37;;;;;;;5.80;100.00;63535.13;5035820;28;20193;-54
2023/12/15 05:38:49;;;;;;;7.23;5.33;;;;;;;5.77;100.00;63534.94;5053729;28;20182;-55
2023/12/15 05:41:14;;;;;;;6.40;4.57;;;;;;;5.80;100.00;63537.63;5053753;28;20185;-56
2023/12/15 05:43:40;;;;;;;11.83;6.10;;;;;;;7.10;100.00;63678.81;5053524;28;20560;-54
2023/12/15 05:46:06;;;;;;;10.40;7.23;;;;;;;6.85;100.00;63651.53;5053536;28;20221;-55
2023/12/15 05:48:32;;;;;;;6.60;5.00;;;;;;;6.30;100.00;63592.13;5053521;28;20579;-53
2023/12/15 05:50:58;;;;;;;7.80;5.90;;;;;;;6.15;100.00;63575.25;5053335;28;20181;-56
2023/12/15 05:53:23;;;;;;;7.13;5.37;;;;;;;6.08;100.00;63568.16;5053349;28;20210;-54
2023/12/15 05:55:49;;;;;;;9.37;5.77;;;;;;;5.79;100.00;63537.09;5053317;28;20181;-55
2023/12/15 05:58:14;;;;;;;8.27;6.10;;;;;;;5.94;100.00;63550.41;5053460;28;20263;-55
2023/12/15 06:00:39;;;;;;;8.13;5.77;;;;;;;5.87;100.00;63545.28;5053279;28;20277;-53
2023/12/15 06:03:05;;;;;;;8.20;5.73;;;;;;;5.84;100.00;63542.56;5053034;28;20213;-57
2023/12/15 06:05:34;;;;;;;7.80;5.53;;;;;;;5.88;100.00;63546.91;5053244;28;20505;-54
2023/12/15 06:08:01;;;;;;;7.40;5.30;;;;;;;5.94;100.00;63550.41;5053090;28;20205;-56
2023/12/15 06:10:27;;;;;;;9.43;6.27;;;;;;;5.77;100.00;63534.38;5051957;28;20209;-54
2023/12/15 06:12:52;;;;;;;10.63;6.00;;;;;;;5.82;100.00;63539.81;5034891;28;20217;-56
2023/12/15 06:15:18;;;;;;;10.77;6.07;;;;;;;5.83;100.00;63540.91;5052916;28;20276;-59
2023/12/15 06:17:43;;;;;;;8.30;6.00;;;;;;;5.78;100.00;63533.50;5053424;28;20223;-59
2023/12/15 06:20:10;;;;;;;8.43;6.37;;;;;;;5.81;100.00;63539.28;5053031;28;20186;-57
2023/12/15 06:22:36;;;;;;;10.13;7.40;;;;;;;5.72;100.00;63528.94;5035340;28;20785;-55
2023/12/15 06:25:01;;;;;;;10.00;6.33;;;;;;;5.65;100.00;63519.38;5052931;28;20181;-55
2023/12/15 06:27:27;;;;;;;8.20;5.93;;;;;;;5.62;100.00;63518.03;5052859;28;20581;-57
2023/12/15 06:29:52;;;;;;;11.17;7.13;;;;;;;5.56;100.00;63507.06;5052828;28;20354;-55
2023/12/15 06:32:18;;;;;;;11.03;7.37;;;;;;;5.57;100.00;63510.09;5052809;28;20217;-53
2023/12/15 06:34:43;;;;;;;9.73;6.90;;;;;;;5.54;100.00;63509.88;5052632;28;20185;-61
2023/12/15 06:37:09;;;;;;;9.60;7.53;;;;;;;5.50;100.00;63504.97;5066032;22;20243;-58
2023/12/15 06:39:34;;;;;;;11.33;7.57;;;;;;;5.63;100.00;63519.13;5070668;28;20678;-54
2023/12/15 06:42:02;;;;;;;14.10;8.37;;;;;;;5.50;100.00;63507.47;5063588;28;20294;-55
2023/12/15 06:44:28;;;;;;;11.70;7.93;;;;;;;5.54;100.00;63509.31;5052140;28;20208;-55
2023/12/15 06:46:53;;;;;;;12.70;7.70;;;;;;;5.56;100.00;63509.00;5034660;28;20605;-56
2023/12/15 06:49:19;;;;;;;12.47;8.27;;;;;;;5.54;100.00;63509.88;5052798;28;20267;-56
2023/12/15 06:51:46;;;;;;;13.17;7.87;;;;;;;5.54;100.00;63506.81;5034758;28;20702;-54
2023/12/15 06:54:11;;;;;;;11.10;8.40;;;;;;;5.47;100.00;63499.75;5052482;28;20190;-61
2023/12/15 06:56:43;;;;;;;12.03;7.67;;;;;;;5.46;100.00;63500.63;5052660;28;20608;-57
2023/12/15 06:59:09;;;;;;;12.00;8.77;;;;;;;5.44;100.00;63501.47;5052511;28;20196;-57
2023/12/15 07:01:34;;;;;;;14.17;9.40;;;;;;;5.40;100.00;63494.09;5052415;28;20185;-56
2023/12/15 07:04:00;;;;;;;14.37;9.00;;;;;;;5.42;100.00;63496.81;5052304;28;20185;-56
2023/12/15 07:06:26;;;;;;;12.63;8.33;;;;;;;5.43;100.00;63497.34;5052321;28;20198;-55
2023/12/15 07:08:54;;;;;;;11.73;8.50;;;;;;;5.30;100.00;63483.75;5052189;28;20231;-55
2023/12/15 07:11:20;;;;;;;16.60;9.70;;;;;;;5.35;100.00;63486.16;5034820;28;20279;-55
2023/12/15 07:13:45;;;;;;;15.67;9.63;;;;;;;5.47;100.00;63501.72;5052227;28;20263;-54
2023/12/15 07:16:11;;;;;;;14.60;9.03;;;;;;;5.48;100.00;63498.34;5052279;28;20228;-55
2023/12/15 07:18:37;;;;;;;13.60;9.13;;;;;;;5.39;100.00;63493.00;5051939;28;20208;-55
2023/12/15 07:21:03;;;;;;;12.33;8.63;;;;;;;5.43;100.00;63492.38;5051927;28;20196;-56
2023/12/15 07:23:28;;;;;;;17.60;10.70;;;;;;;5.45;100.00;63500.09;5051910;28;20597;-55
2023/12/15 07:25:53;;;;;;;13.73;9.17;;;;;;;5.43;100.00;63497.34;5051976;28;20182;-55
2023/12/15 07:28:19;;;;;;;14.00;9.00;;;;;;;5.46;100.00;63498.66;5051735;28;20718;-56
2023/12/15 07:30:44;;;;;;;11.63;8.60;;;;;;;5.50;100.00;63504.97;5051866;28;20185;-61
2023/12/15 07:33:10;;;;;;;12.77;8.83;;;;;;;5.40;100.00;63494.63;5051826;28;20402;-55
2023/12/15 07:35:35;;;;;;;13.50;8.67;;;;;;;5.47;100.00;63499.75;5052020;28;20601;-56
2023/12/15 07:38:01;;;;;;;13.10;9.13;;;;;;;5.44;100.00;63498.97;5052097;28;20216;-57
2023/12/15 07:40:27;;;;;;;12.20;9.23;;;;;;;5.48;100.00;63505.84;5051921;28;20227;-55
2023/12/15 07:42:53;;;;;;;11.90;8.53;;;;;;;5.42;100.00;63493.75;5051822;28;20221;-55
2023/12/15 07:45:18;;;;;;;12.30;8.07;;;;;;;5.36;100.00;63485.28;5051703;28;20561;-56
2023/12/15 07:47:44;;;;;;;10.60;7.83;;;;;;;5.39;100.00;63493.56;5051645;28;20212;-54
2023/12/15 07:50:10;;;;;;;13.90;8.77;;;;;;;5.37;100.00;63491.38;5051597;28;20650;-56
2023/12/15 07:52:35;;;;;;;17.47;10.33;;;;;;;5.42;100.00;63491.81;5051593;28;20255;-57
2023/12/15 07:55:01;;;;;;;14.00;8.93;;;;;;;5.38;100.00;63491.91;5051500;28;20684;-55
2023/12/15 07:57:26;;;;;;;12.43;8.40;;;;;;;5.38;100.00;63492.44;5051307;28;20235;-56
2023/12/15 07:59:52;;;;;;;11.17;8.10;;;;;;;5.33;100.00;63484.53;5033844;28;20196;-55
2023/12/15 08:02:20;;;;;;;12.40;8.90;;;;;;;5.41;100.00;63498.22;5033631;28;20205;-56
2023/12/15 08:04:46;;;;;;;14.27;10.07;;;;;;;5.60;100.00;63516.41;5051289;28;20670;-55
2023/12/15 08:07:11;;;;;;;12.87;9.23;;;;;;;5.51;100.00;63503.56;5051392;28;20240;-56
2023/12/15 08:09:37;;;;;;;14.10;9.77;;;;;;;5.53;100.00;63508.78;5051283;28;20268;-56
2023/12/15 08:12:03;;;;;;;16.17;9.63;;;;;;;5.51;100.00;63506.06;5051355;28;20213;-55
2023/12/15 08:14:28;;;;;;;11.77;8.17;;;;;;;5.56;100.00;63511.50;5051403;28;20231;-56
2023/12/15 08:17:01;;;;;;;12.07;8.73;;;;;;;5.66;100.00;63522.94;5051253;28;20633;-56
2023/12/15 08:19:29;;;;;;;17.07;10.70;;;;;;;5.70;100.00;63524.25;5051033;28;20194;-57
2023/12/15 08:21:54;;;;;;;15.40;9.50;;;;;;;5.55;100.00;63513.47;5050056;28;20267;-55
2023/12/15 08:24:20;;;;;;;14.30;9.03;;;;;;;5.75;100.00;63532.19;5051182;28;20228;-56
2023/12/15 08:26:45;;;;;;;11.60;8.40;;;;;;;5.71;100.00;63527.84;5051245;28;20307;-54
2023/12/15 08:29:11;;;;;;;13.43;8.50;;;;;;;5.85;100.00;63540.63;5033261;28;20262;-56
2023/12/15 08:31:37;;;;;;;15.97;10.37;;;;;;;5.95;100.00;63551.50;5050885;28;20213;-61
2023/12/15 08:34:03;;;;;;;12.57;8.77;;;;;;;5.82;100.00;63540.38;5050205;28;20177;-55
2023/12/15 08:36:28;;;;;;;12.13;8.33;;;;;;;5.82;100.00;63534.81;5050921;28;20251;-56
2023/12/15 08:38:54;;;;;;;14.13;9.70;;;;;;;5.69;100.00;63523.72;5050996;28;20201;-55
2023/12/15 08:41:19;;;;;;;13.43;8.97;;;;;;;5.87;100.00;63545.84;5050809;28;20209;-54
2023/12/15 08:43:45;;;;;;;13.93;8.20;;;;;;;5.82;100.00;63539.81;5049616;28;20681;-53
2023/12/15 08:46:10;;;;;;;14.50;8.53;;;;;;;5.70;100.00;63527.28;5050725;28;20571;-53
2023/12/15 08:48:36;;;;;;;12.70;8.57;;;;;;;5.78;100.00;63535.47;5050684;28;20216;-54
2023/12/15 08:51:02;;;;;;;10.87;7.93;;;;;;;5.83;100.00;63538.41;5050552;28;20251;-55
2023/12/15 08:53:28;;;;;;;10.10;7.43;;;;;;;5.75;100.00;63530.25;5050486;28;20247;-55
2023/12/15 08:55:53;;;;;;;10.40;7.93;;;;;;;5.70;100.00;63524.25;5050478;28;20659;-53
2023/12/15 08:58:21;;;;;;;13.60;8.50;;;;;;;5.72;100.00;63529.47;5050655;28;20206;-54
2023/12/15 09:00:47;;;;;;;12.27;9.43;;;;;;;5.72;100.00;63524.47;5050724;28;20760;-54
2023/12/15 09:03:12;;;;;;;12.43;9.33;;;;;;;5.71;100.00;63525.91;5050625;28;20205;-54
2023/12/15 09:05:38;;;;;;;10.20;7.77;;;;;;;5.68;100.00;63527.06;5050937;28;20197;-55
2023/12/15 09:08:05;;;;;;;12.00;7.90;;;;;;;5.63;100.00;63519.13;5032548;28;20221;-53
2023/12/15 09:10:33;;;;;;;13.90;8.33;;;;;;;5.69;100.00;63521.22;5050458;28;20189;-54
2023/12/15 09:13:02;;;;;;;14.77;8.00;;;;;;;5.76;100.00;63533.28;5050480;28;20213;-55
2023/12/15 09:15:27;;;;;;;12.30;8.93;;;;;;;5.89;100.00;63548.03;5050566;28;20185;-55
2023/12/15 09:17:52;;;;;;;13.97;8.90;;;;;;;5.85;100.00;63540.63;5050448;28;20208;-54
2023/12/15 09:20:18;;;;;;;14.60;9.47;;;;;;;5.87;100.00;63545.28;5050482;28;20198;-54
2023/12/15 09:22:45;;;;;;;13.10;8.60;;;;;;;5.94;100.00;63550.41;5050413;28;20214;-53
2023/12/15 09:25:10;;;;;;;14.40;8.70;;;;;;;5.91;100.00;63549.66;5050518;28;20573;-55
2023/12/15 09:27:36;;;;;;;14.03;9.13;;;;;;;5.79;100.00;63534.59;5050617;28;20213;-56
2023/12/15 09:30:01;;;;;;;14.93;9.10;;;;;;;5.80;100.00;63538.19;5032544;28;20276;-55
2023/12/15 09:32:27;;;;;;;14.40;9.97;;;;;;;5.78;100.00;63535.47;5032417;28;20277;-54
2023/12/15 09:34:53;;;;;;;13.80;8.87;;;;;;;5.70;100.00;63527.28;5050099;28;20186;-55
2023/12/15 09:37:19;;;;;;;12.67;8.60;;;;;;;5.75;100.00;63530.25;5032255;28;20221;-55
2023/12/15 09:39:44;;;;;;;14.03;8.47;;;;;;;5.81;100.00;63538.75;5032254;28;20189;-56
2023/12/15 09:42:10;;;;;;;15.50;9.50;;;;;;;5.80;100.00;63538.19;5050237;28;20320;-54
2023/12/15 09:44:35;;;;;;;13.43;8.97;;;;;;;5.78;100.00;63536.00;5033463;28;20204;-55
2023/12/15 09:47:01;;;;;;;14.43;9.30;;;;;;;5.92;100.00;63551.28;5053580;28;20240;-54
2023/12/15 09:49:28;;;;;;;11.50;8.47;;;;;;;5.82;100.00;63535.38;5035806;28;20233;-54
2023/12/15 09:51:56;;;;;;;13.43;9.40;;;;;;;5.96;100.00;63552.59;5035672;28;20732;-56
2023/12/15 09:54:23;;;;;;;13.97;8.67;;;;;;;6.04;100.00;63563.81;5053567;28;20186;-58
2023/12/15 09:56:49;;;;;;;13.60;9.37;;;;;;;6.01;100.00;63558.03;5053536;28;20687;-57
2023/12/15 09:59:14;;;;;;;13.63;9.00;;;;;;;5.96;100.00;63549.56;5035656;28;20200;-55
2023/12/15 10:01:40;;;;;;;13.93;8.97;;;;;;;5.90;100.00;63546.59;5053378;28;20236;-55
2023/12/15 10:04:06;;;;;;;16.23;9.70;;;;;;;5.90;100.00;63548.56;5053412;28;20253;-54
2023/12/15 10:06:36;;;;;;;14.17;8.73;;;;;;;5.92;100.00;63548.78;5035414;28;20225;-55
2023/12/15 10:09:05;;;;;;;16.90;9.70;;;;;;;5.87;100.00;63545.28;5053314;28;20190;-56
2023/12/15 10:11:33;;;;;;;13.40;9.37;;;;;;;5.87;100.00;63543.34;5035360;28;20197;-55
2023/12/15 10:14:04;;;;;;;14.00;9.63;;;;;;;5.93;100.00;63552.38;5053291;28;20217;-57
2023/12/15 10:16:37;;;;;;;15.10;9.27;;;;;;;5.90;100.00;63548.56;5035345;28;20197;-54
2023/12/15 10:19:07;;;;;;;17.53;9.77;;;;;;;5.96;100.00;63555.09;5053137;28;20193;-53
2023/12/15 10:21:33;;;;;;;16.50;9.93;;;;;;;6.13;100.00;63571.13;5053353;28;20213;-55
2023/12/15 10:24:16;;;;;;;16.20;10.53;;;;;;;6.19;100.00;63580.16;5052943;28;20184;-55
2023/12/15 10:26:42;;;;;;;23.43;12.17;;;;;;;6.24;100.00;63585.59;5053193;28;20228;-57
2023/12/15 10:29:08;;;;;;;18.47;11.37;;;;;;;6.21;100.00;63582.34;5051710;28;20560;-55
2023/12/15 10:31:37;;;;;;;24.30;12.40;;;;;;;6.31;100.00;63588.22;5052978;28;20185;-56
2023/12/15 10:34:04;;;;;;;16.77;9.47;;;;;;;6.21;100.00;63581.78;5052884;28;20186;-56
2023/12/15 10:36:33;;;;;;;14.17;10.00;;;;;;;6.44;100.00;63606.88;5034921;28;20216;-56
2023/12/15 10:39:00;;;;;;;17.07;10.17;;;;;;;6.33;100.00;63595.41;5052898;28;20209;-56
2023/12/15 10:41:30;;;;;;;15.03;9.30;;;;;;;6.25;100.00;63584.19;5053055;28;20196;-54
2023/12/15 10:43:59;;;;;;;13.50;9.90;;;;;;;6.20;100.00;63581.22;5052804;28;20181;-55
2023/12/15 10:46:27;;;;;;;13.90;9.70;;;;;;;6.24;100.00;63585.59;5052840;28;20251;-55
2023/12/15 10:48:53;;;;;;;15.07;9.90;;;;;;;6.23;100.00;63584.50;5052513;28;20200;-56
2023/12/15 10:51:20;;;;;;;14.27;10.10;;;;;;;6.20;100.00;63580.72;5052661;28;20181;-54
2023/12/15 10:53:48;;;;;;;16.07;9.67;;;;;;;6.21;100.00;63582.34;5052473;28;20189;-55
2023/12/15 10:56:14;;;;;;;17.00;10.67;;;;;;;6.20;100.00;63578.72;5051973;28;20259;-54
2023/12/15 10:58:40;;;;;;;13.60;8.93;;;;;;;6.29;100.00;63586.06;5052344;28;20220;-54
2023/12/15 11:01:10;;;;;;;15.47;10.17;;;;;;;6.34;100.00;63595.97;5052662;28;20186;-55
2023/12/15 11:03:37;;;;;;;14.50;9.47;;;;;;;6.28;100.00;63589.94;5052561;28;20209;-56
2023/12/15 11:06:05;;;;;;;11.93;8.67;;;;;;;6.43;100.00;63605.75;5052434;28;20190;-52
2023/12/15 11:08:31;;;;;;;13.23;8.87;;;;;;;6.42;100.00;63607.72;5076868;22;20220;-55
2023/12/15 11:10:57;;;;;;;13.13;8.87;;;;;;;6.51;100.00;63612.53;5072447;28;20231;-54
2023/12/15 11:14:02;;;;;;;14.53;8.07;;;;;;;6.30;100.00;63589.09;5055047;28;20210;-55
2023/12/15 11:16:29;;;;;;;11.30;7.50;;;;;;;6.36;100.00;63596.16;4972027;28;20643;-59
2023/12/15 11:18:56;;;;;;;16.10;9.87;;;;;;;6.32;100.00;63591.81;4971363;28;20677;-54
2023/12/15 11:21:22;;;;;;;13.27;8.83;;;;;;;6.32;100.00;63591.81;5011073;28;20659;-54
2023/12/15 11:24:07;;;;;;;17.93;10.13;;;;;;;6.30;100.00;63592.13;5052198;28;20186;-60